SXS1FG LTAI-EDDE
Flight info
| Callsign | SXS1FG |
|---|---|
| Flight time | N/A |
| Altitude | 36000 |
| Route | EKNUD UQ26 TUDBU DCT APROB DCT INVED DCT DITIS DCT APRAQ DCT DONAD DCT VARIK L602 NARUS NARUS1V |
| Aircraft | B38M/M-SDE1FGHILORVWXY/HB1 |
Departure
| Time | 2026-05-04 15:45 |
|---|---|
| Airport | Antalya International Airport (LTAI) |
Arrival
| Time | N/A |
|---|---|
| Airport | Erfurt-Weimar Airport (EDDE) |
| Time | Latitude | Longitude | Altitude | Speed | Heading |
|---|---|---|---|---|---|
| 2026-05-04 15:15 | 36.89364 | 30.79602 | 178 ft | 0 kts | 6° |
| 2026-05-04 15:33 | 36.89362 | 30.79602 | 177 ft | 0 kts | 6° |
| 2026-05-04 15:34 | 36.89344 | 30.79599 | 177 ft | 2 kts | 7° |
| 2026-05-04 15:34 | 36.89330 | 30.79597 | 177 ft | 2 kts | 7° |
| 2026-05-04 15:34 | 36.89302 | 30.79587 | 177 ft | 2 kts | 60° |
| 2026-05-04 15:35 | 36.89299 | 30.79566 | 177 ft | 1 kts | 97° |
| 2026-05-04 15:35 | 36.89300 | 30.79565 | 177 ft | 0 kts | 97° |
| 2026-05-04 15:37 | 36.89299 | 30.79574 | 177 ft | 3 kts | 96° |
| 2026-05-04 15:37 | 36.89294 | 30.79629 | 177 ft | 9 kts | 96° |
| 2026-05-04 15:37 | 36.89285 | 30.79733 | 177 ft | 14 kts | 97° |
| 2026-05-04 15:38 | 36.89273 | 30.79876 | 177 ft | 18 kts | 96° |
| 2026-05-04 15:38 | 36.89257 | 30.80054 | 177 ft | 21 kts | 96° |
| 2026-05-04 15:38 | 36.89245 | 30.80199 | 177 ft | 17 kts | 96° |
| 2026-05-04 15:38 | 36.89233 | 30.80343 | 177 ft | 16 kts | 96° |
| 2026-05-04 15:39 | 36.89222 | 30.80477 | 177 ft | 16 kts | 96° |
| 2026-05-04 15:39 | 36.89212 | 30.80582 | 177 ft | 9 kts | 96° |
| 2026-05-04 15:39 | 36.89162 | 30.80632 | 177 ft | 4 kts | 186° |
| 2026-05-04 15:40 | 36.89119 | 30.80626 | 177 ft | 9 kts | 187° |
| 2026-05-04 15:40 | 36.89038 | 30.80615 | 177 ft | 14 kts | 186° |
| 2026-05-04 15:40 | 36.88920 | 30.80598 | 177 ft | 17 kts | 187° |
| 2026-05-04 15:40 | 36.88808 | 30.80583 | 177 ft | 15 kts | 186° |
| 2026-05-04 15:41 | 36.88700 | 30.80568 | 177 ft | 15 kts | 186° |
| 2026-05-04 15:41 | 36.88596 | 30.80554 | 177 ft | 15 kts | 186° |
| 2026-05-04 15:41 | 36.88491 | 30.80540 | 177 ft | 14 kts | 187° |
| 2026-05-04 15:41 | 36.88389 | 30.80526 | 177 ft | 14 kts | 186° |
| 2026-05-04 15:42 | 36.88291 | 30.80513 | 177 ft | 13 kts | 186° |
| 2026-05-04 15:42 | 36.88202 | 30.80501 | 177 ft | 8 kts | 187° |
| 2026-05-04 15:42 | 36.88166 | 30.80507 | 177 ft | 4 kts | 150° |
| 2026-05-04 15:42 | 36.88148 | 30.80538 | 177 ft | 4 kts | 108° |
| 2026-05-04 15:43 | 36.88143 | 30.80593 | 177 ft | 7 kts | 95° |
| 2026-05-04 15:43 | 36.88138 | 30.80664 | 177 ft | 6 kts | 88° |
| 2026-05-04 15:43 | 36.88154 | 30.80711 | 177 ft | 4 kts | 46° |
| 2026-05-04 15:43 | 36.88182 | 30.80733 | 177 ft | 4 kts | 20° |
| 2026-05-04 15:44 | 36.88200 | 30.80737 | 177 ft | 0 kts | 6° |
| 2026-05-04 15:44 | 36.88364 | 30.80759 | 177 ft | 56 kts | 5° |
| 2026-05-04 15:45 | 36.88943 | 30.80837 | 177 ft | 108 kts | 7° |
| 2026-05-04 15:45 | 36.89836 | 30.80960 | 178 ft | 147 kts | 7° |
| 2026-05-04 15:45 | 36.90912 | 30.81161 | 438 ft | 158 kts | 5° |
| 2026-05-04 15:45 | 36.91949 | 30.81452 | 1022 ft | 155 kts | 9° |
| 2026-05-04 15:46 | 36.93011 | 30.81961 | 1430 ft | 165 kts | 14° |
| 2026-05-04 15:46 | 36.94117 | 30.82492 | 1729 ft | 180 kts | 15° |
| 2026-05-04 15:46 | 36.95340 | 30.83092 | 2045 ft | 199 kts | 17° |
| 2026-05-04 15:46 | 36.96641 | 30.83742 | 2627 ft | 205 kts | 18° |
| 2026-05-04 15:47 | 36.97977 | 30.84409 | 3397 ft | 207 kts | 18° |
| 2026-05-04 15:47 | 36.99298 | 30.85063 | 4140 ft | 210 kts | 19° |
| 2026-05-04 15:47 | 37.00708 | 30.85749 | 4618 ft | 226 kts | 19° |
| 2026-05-04 15:47 | 37.02203 | 30.86473 | 5135 ft | 239 kts | 19° |
| 2026-05-04 15:48 | 37.03792 | 30.87246 | 5644 ft | 252 kts | 19° |
| 2026-05-04 15:48 | 37.05459 | 30.88059 | 6343 ft | 257 kts | 20° |
| 2026-05-04 15:48 | 37.08959 | 30.88812 | 7801 ft | 262 kts | 351° |
| 2026-05-04 15:49 | 37.10732 | 30.88339 | 8492 ft | 266 kts | 347° |
| 2026-05-04 15:49 | 37.12517 | 30.87789 | 9227 ft | 268 kts | 347° |
| 2026-05-04 15:49 | 37.14316 | 30.87278 | 9993 ft | 269 kts | 348° |
| 2026-05-04 15:49 | 37.16154 | 30.86799 | 10550 ft | 278 kts | 348° |
| 2026-05-04 15:50 | 37.18098 | 30.86315 | 10958 ft | 291 kts | 348° |
| 2026-05-04 15:50 | 37.20165 | 30.85803 | 11325 ft | 306 kts | 348° |
| 2026-05-04 15:50 | 37.22297 | 30.85272 | 11659 ft | 321 kts | 348° |
| 2026-05-04 15:50 | 37.24527 | 30.84713 | 12139 ft | 330 kts | 348° |
| 2026-05-04 15:51 | 37.26777 | 30.84148 | 12881 ft | 331 kts | 347° |
| 2026-05-04 15:51 | 37.29051 | 30.83576 | 13557 ft | 334 kts | 347° |
| 2026-05-04 15:51 | 37.31324 | 30.83004 | 14211 ft | 338 kts | 347° |
| 2026-05-04 15:51 | 37.33635 | 30.82422 | 14912 ft | 340 kts | 347° |
| 2026-05-04 15:52 | 37.35947 | 30.81838 | 15648 ft | 340 kts | 347° |
| 2026-05-04 15:52 | 37.38288 | 30.81244 | 16254 ft | 344 kts | 347° |
| 2026-05-04 15:52 | 37.40644 | 30.80674 | 16956 ft | 345 kts | 348° |
| 2026-05-04 15:52 | 37.43028 | 30.80287 | 17554 ft | 350 kts | 353° |
| 2026-05-04 15:53 | 37.45473 | 30.80176 | 18144 ft | 354 kts | 357° |
| 2026-05-04 15:53 | 37.47929 | 30.80234 | 18764 ft | 357 kts | 359° |
| 2026-05-04 15:53 | 37.50424 | 30.80353 | 19353 ft | 360 kts | 360° |
| 2026-05-04 15:53 | 37.52949 | 30.80493 | 19862 ft | 365 kts | 360° |
| 2026-05-04 15:54 | 37.55495 | 30.80635 | 20488 ft | 366 kts | 360° |
| 2026-05-04 15:54 | 37.58026 | 30.80771 | 20993 ft | 369 kts | 360° |
| 2026-05-04 15:54 | 37.60610 | 30.80902 | 21530 ft | 372 kts | 360° |
| 2026-05-04 15:54 | 37.63190 | 30.81025 | 22078 ft | 374 kts | 0° |
| 2026-05-04 15:55 | 37.65803 | 30.81145 | 22576 ft | 377 kts | 0° |
| 2026-05-04 15:55 | 37.68452 | 30.81266 | 23043 ft | 380 kts | 0° |
| 2026-05-04 15:55 | 37.71092 | 30.81385 | 23529 ft | 383 kts | 0° |
| 2026-05-04 15:55 | 37.73786 | 30.81507 | 23996 ft | 386 kts | 0° |
| 2026-05-04 15:56 | 37.76472 | 30.81627 | 24424 ft | 389 kts | 0° |
| 2026-05-04 15:56 | 37.79140 | 30.81736 | 24897 ft | 390 kts | 360° |
| 2026-05-04 15:56 | 37.81897 | 30.81754 | 25292 ft | 393 kts | 358° |
| 2026-05-04 15:56 | 37.84614 | 30.81697 | 25797 ft | 394 kts | 358° |
| 2026-05-04 15:57 | 37.87374 | 30.81616 | 26165 ft | 398 kts | 358° |
| 2026-05-04 15:57 | 37.90129 | 30.81534 | 26585 ft | 400 kts | 358° |
| 2026-05-04 15:57 | 37.92936 | 30.81456 | 27092 ft | 400 kts | 358° |
| 2026-05-04 15:57 | 37.95713 | 30.81385 | 27484 ft | 402 kts | 358° |
| 2026-05-04 15:58 | 37.98531 | 30.81319 | 27901 ft | 403 kts | 358° |
| 2026-05-04 15:58 | 38.01311 | 30.81257 | 28250 ft | 406 kts | 359° |
| 2026-05-04 15:58 | 38.04133 | 30.81198 | 28639 ft | 408 kts | 358° |
| 2026-05-04 15:58 | 38.07005 | 30.81139 | 28995 ft | 410 kts | 358° |
| 2026-05-04 15:59 | 38.09854 | 30.81080 | 29301 ft | 413 kts | 359° |
| 2026-05-04 15:59 | 38.12703 | 30.80998 | 29699 ft | 414 kts | 357° |
| 2026-05-04 15:59 | 38.15517 | 30.80738 | 30051 ft | 416 kts | 354° |
| 2026-05-04 15:59 | 38.18381 | 30.80315 | 30474 ft | 416 kts | 353° |
| 2026-05-04 16:00 | 38.21255 | 30.79818 | 30991 ft | 412 kts | 352° |
| 2026-05-04 16:00 | 38.24072 | 30.79313 | 31398 ft | 412 kts | 352° |
| 2026-05-04 16:00 | 38.26912 | 30.78806 | 31805 ft | 410 kts | 352° |
| 2026-05-04 16:00 | 38.29742 | 30.78309 | 31961 ft | 415 kts | 352° |
| 2026-05-04 16:01 | 38.35461 | 30.77332 | 31968 ft | 410 kts | 352° |
| 2026-05-04 16:01 | 38.41083 | 30.76388 | 31966 ft | 409 kts | 352° |
| 2026-05-04 16:02 | 38.46780 | 30.75438 | 31963 ft | 411 kts | 353° |
| 2026-05-04 16:03 | 38.55238 | 30.74033 | 31958 ft | 410 kts | 353° |
| 2026-05-04 16:03 | 38.60882 | 30.73098 | 31966 ft | 409 kts | 353° |
| 2026-05-04 16:04 | 38.66545 | 30.72153 | 31965 ft | 409 kts | 353° |
| 2026-05-04 16:04 | 38.75028 | 30.70739 | 31967 ft | 409 kts | 353° |
| 2026-05-04 16:05 | 38.80664 | 30.69777 | 31959 ft | 408 kts | 352° |
| 2026-05-04 16:06 | 38.88863 | 30.66748 | 31954 ft | 412 kts | 338° |
| 2026-05-04 16:07 | 38.99108 | 30.60098 | 31954 ft | 414 kts | 335° |
| 2026-05-04 16:08 | 39.09369 | 30.53317 | 31966 ft | 412 kts | 336° |
| 2026-05-04 16:09 | 39.22130 | 30.44945 | 31956 ft | 414 kts | 337° |
| 2026-05-04 16:10 | 39.32429 | 30.38173 | 31960 ft | 415 kts | 336° |
| 2026-05-04 16:11 | 39.42682 | 30.31407 | 31953 ft | 416 kts | 336° |
| 2026-05-04 16:12 | 39.58378 | 30.21913 | 31959 ft | 415 kts | 342° |
| 2026-05-04 16:13 | 39.69078 | 30.16367 | 31966 ft | 415 kts | 342° |
| 2026-05-04 16:14 | 39.79794 | 30.10651 | 32378 ft | 418 kts | 341° |
| 2026-05-04 16:15 | 39.87786 | 30.06356 | 33534 ft | 415 kts | 341° |
| 2026-05-04 16:16 | 39.93121 | 30.03480 | 34115 ft | 416 kts | 341° |
| 2026-05-04 16:16 | 40.01142 | 29.99156 | 34775 ft | 417 kts | 340° |
| 2026-05-04 16:17 | 40.06524 | 29.96248 | 35055 ft | 421 kts | 340° |
| 2026-05-04 16:18 | 40.14648 | 29.91843 | 35650 ft | 422 kts | 340° |
| 2026-05-04 16:18 | 40.17384 | 29.90358 | 35835 ft | 424 kts | 340° |
| 2026-05-04 16:19 | 40.25608 | 29.85888 | 36044 ft | 434 kts | 340° |
| 2026-05-04 16:19 | 40.31252 | 29.82813 | 36035 ft | 438 kts | 340° |
| 2026-05-04 16:20 | 40.45282 | 29.75133 | 36020 ft | 437 kts | 340° |
| 2026-05-04 16:22 | 40.59253 | 29.67460 | 36009 ft | 436 kts | 340° |
| 2026-05-04 16:23 | 40.74780 | 29.54761 | 36032 ft | 443 kts | 325° |
| 2026-05-04 16:25 | 40.89158 | 29.39406 | 36033 ft | 443 kts | 326° |
| 2026-05-04 16:26 | 41.05892 | 29.21592 | 36034 ft | 443 kts | 325° |
| 2026-05-04 16:28 | 41.16643 | 29.06769 | 36046 ft | 454 kts | 309° |
| 2026-05-04 16:29 | 41.28739 | 28.82290 | 36038 ft | 452 kts | 308° |
| 2026-05-04 16:31 | 41.37397 | 28.64799 | 36051 ft | 454 kts | 308° |
| 2026-05-04 16:32 | 41.47769 | 28.43805 | 36054 ft | 453 kts | 309° |
| 2026-05-04 16:33 | 41.56017 | 28.31401 | 36043 ft | 447 kts | 320° |
| 2026-05-04 16:34 | 41.62719 | 28.22758 | 36045 ft | 445 kts | 320° |
| 2026-05-04 16:35 | 41.75997 | 28.05322 | 36048 ft | 447 kts | 319° |
| 2026-05-04 16:36 | 41.82629 | 27.96510 | 36057 ft | 447 kts | 319° |
| 2026-05-04 16:37 | 41.89206 | 27.87730 | 36049 ft | 447 kts | 319° |
| 2026-05-04 16:38 | 41.98015 | 27.75940 | 36049 ft | 448 kts | 319° |